sensor_id;sensor_type;location;lat;lon;timestamp;P1;durP1;ratioP1;P2;durP2;ratioP2
62687;SDS011;48752;51.056;17.056;2023-03-19T00:00:33;24.00;;;12.23;;
62687;SDS011;48752;51.056;17.056;2023-03-19T00:02:58;26.15;;;12.57;;
62687;SDS011;48752;51.056;17.056;2023-03-19T00:05:25;21.27;;;11.05;;
62687;SDS011;48752;51.056;17.056;2023-03-19T00:07:50;25.77;;;10.55;;
62687;SDS011;48752;51.056;17.056;2023-03-19T00:12:46;30.35;;;12.45;;
62687;SDS011;48752;51.056;17.056;2023-03-19T00:15:11;19.70;;;11.32;;
62687;SDS011;48752;51.056;17.056;2023-03-19T00:17:38;26.35;;;11.70;;
62687;SDS011;48752;51.056;17.056;2023-03-19T00:20:04;23.27;;;12.38;;
62687;SDS011;48752;51.056;17.056;2023-03-19T00:22:30;24.88;;;11.48;;
62687;SDS011;48752;51.056;17.056;2023-03-19T00:24:55;27.90;;;12.20;;
62687;SDS011;48752;51.056;17.056;2023-03-19T00:27:22;26.65;;;11.80;;
62687;SDS011;48752;51.056;17.056;2023-03-19T00:29:48;24.15;;;11.43;;
62687;SDS011;48752;51.056;17.056;2023-03-19T00:32:15;24.75;;;12.57;;
62687;SDS011;48752;51.056;17.056;2023-03-19T00:34:50;28.75;;;13.93;;
62687;SDS011;48752;51.056;17.056;2023-03-19T00:37:18;31.58;;;13.82;;
62687;SDS011;48752;51.056;17.056;2023-03-19T00:39:44;25.70;;;11.32;;
62687;SDS011;48752;51.056;17.056;2023-03-19T00:42:09;26.15;;;11.77;;
62687;SDS011;48752;51.056;17.056;2023-03-19T00:44:38;27.13;;;12.77;;
62687;SDS011;48752;51.056;17.056;2023-03-19T00:49:34;25.40;;;11.95;;
62687;SDS011;48752;51.056;17.056;2023-03-19T00:52:03;34.20;;;14.55;;
62687;SDS011;48752;51.056;17.056;2023-03-19T00:54:30;28.42;;;13.20;;
62687;SDS011;48752;51.056;17.056;2023-03-19T00:56:58;27.75;;;13.50;;
62687;SDS011;48752;51.056;17.056;2023-03-19T00:59:25;32.40;;;12.52;;
62687;SDS011;48752;51.056;17.056;2023-03-19T01:01:51;31.27;;;13.93;;
62687;SDS011;48752;51.056;17.056;2023-03-19T01:04:18;27.77;;;11.98;;
62687;SDS011;48752;51.056;17.056;2023-03-19T01:06:45;22.67;;;12.02;;
62687;SDS011;48752;51.056;17.056;2023-03-19T01:09:10;22.70;;;12.32;;
62687;SDS011;48752;51.056;17.056;2023-03-19T01:11:36;29.50;;;13.05;;
62687;SDS011;48752;51.056;17.056;2023-03-19T01:14:02;24.77;;;13.50;;
62687;SDS011;48752;51.056;17.056;2023-03-19T01:16:27;29.13;;;13.82;;
62687;SDS011;48752;51.056;17.056;2023-03-19T01:18:54;28.63;;;13.55;;
62687;SDS011;48752;51.056;17.056;2023-03-19T01:21:20;34.03;;;14.55;;
62687;SDS011;48752;51.056;17.056;2023-03-19T01:23:57;29.75;;;15.88;;
62687;SDS011;48752;51.056;17.056;2023-03-19T01:26:24;34.95;;;15.57;;
62687;SDS011;48752;51.056;17.056;2023-03-19T01:28:51;39.10;;;17.98;;
62687;SDS011;48752;51.056;17.056;2023-03-19T01:31:17;38.00;;;17.42;;
62687;SDS011;48752;51.056;17.056;2023-03-19T01:33:43;42.92;;;18.83;;
62687;SDS011;48752;51.056;17.056;2023-03-19T01:36:08;46.30;;;20.67;;
62687;SDS011;48752;51.056;17.056;2023-03-19T01:38:34;38.13;;;18.88;;
62687;SDS011;48752;51.056;17.056;2023-03-19T01:41:00;39.03;;;19.13;;
62687;SDS011;48752;51.056;17.056;2023-03-19T01:43:27;41.65;;;17.55;;
62687;SDS011;48752;51.056;17.056;2023-03-19T01:46:04;40.85;;;17.38;;
62687;SDS011;48752;51.056;17.056;2023-03-19T01:49:01;41.90;;;18.83;;
62687;SDS011;48752;51.056;17.056;2023-03-19T01:51:38;38.58;;;17.27;;
62687;SDS011;48752;51.056;17.056;2023-03-19T01:54:08;35.97;;;18.10;;
62687;SDS011;48752;51.056;17.056;2023-03-19T01:56:52;33.70;;;17.50;;
62687;SDS011;48752;51.056;17.056;2023-03-19T01:59:28;40.97;;;18.55;;
62687;SDS011;48752;51.056;17.056;2023-03-19T02:01:57;52.03;;;18.48;;
62687;SDS011;48752;51.056;17.056;2023-03-19T02:04:26;32.25;;;17.42;;
62687;SDS011;48752;51.056;17.056;2023-03-19T02:06:57;34.83;;;16.85;;
62687;SDS011;48752;51.056;17.056;2023-03-19T02:09:25;37.78;;;18.25;;
62687;SDS011;48752;51.056;17.056;2023-03-19T02:11:58;36.63;;;17.23;;
62687;SDS011;48752;51.056;17.056;2023-03-19T02:14:27;38.67;;;18.05;;
62687;SDS011;48752;51.056;17.056;2023-03-19T02:16:54;37.42;;;17.23;;
62687;SDS011;48752;51.056;17.056;2023-03-19T02:22:16;32.80;;;18.20;;
62687;SDS011;48752;51.056;17.056;2023-03-19T02:25:31;43.05;;;18.35;;
62687;SDS011;48752;51.056;17.056;2023-03-19T02:27:44;38.10;;;19.17;;
62687;SDS011;48752;51.056;17.056;2023-03-19T02:30:24;39.38;;;18.85;;
62687;SDS011;48752;51.056;17.056;2023-03-19T02:32:52;38.45;;;18.05;;
62687;SDS011;48752;51.056;17.056;2023-03-19T02:35:19;41.20;;;17.70;;
62687;SDS011;48752;51.056;17.056;2023-03-19T02:37:44;46.75;;;19.65;;
62687;SDS011;48752;51.056;17.056;2023-03-19T02:40:11;38.35;;;19.33;;
62687;SDS011;48752;51.056;17.056;2023-03-19T02:42:57;39.70;;;19.15;;
62687;SDS011;48752;51.056;17.056;2023-03-19T02:45:26;43.33;;;19.60;;
62687;SDS011;48752;51.056;17.056;2023-03-19T02:47:54;45.28;;;20.63;;
62687;SDS011;48752;51.056;17.056;2023-03-19T02:50:20;49.33;;;20.52;;
62687;SDS011;48752;51.056;17.056;2023-03-19T02:52:46;51.03;;;22.08;;
62687;SDS011;48752;51.056;17.056;2023-03-19T02:55:12;49.60;;;22.83;;
62687;SDS011;48752;51.056;17.056;2023-03-19T02:57:38;45.47;;;20.95;;
62687;SDS011;48752;51.056;17.056;2023-03-19T03:00:04;42.53;;;19.55;;
62687;SDS011;48752;51.056;17.056;2023-03-19T03:02:35;51.20;;;21.15;;
62687;SDS011;48752;51.056;17.056;2023-03-19T03:05:03;37.60;;;18.00;;
62687;SDS011;48752;51.056;17.056;2023-03-19T03:07:31;35.92;;;17.55;;
62687;SDS011;48752;51.056;17.056;2023-03-19T03:09:58;33.97;;;16.30;;
62687;SDS011;48752;51.056;17.056;2023-03-19T03:12:26;43.00;;;18.58;;
62687;SDS011;48752;51.056;17.056;2023-03-19T03:14:52;39.90;;;18.98;;
62687;SDS011;48752;51.056;17.056;2023-03-19T03:17:19;44.70;;;19.67;;
62687;SDS011;48752;51.056;17.056;2023-03-19T03:19:46;35.38;;;17.45;;
62687;SDS011;48752;51.056;17.056;2023-03-19T03:22:12;41.80;;;19.20;;
62687;SDS011;48752;51.056;17.056;2023-03-19T03:24:38;43.35;;;19.17;;
62687;SDS011;48752;51.056;17.056;2023-03-19T03:27:05;37.40;;;17.60;;
62687;SDS011;48752;51.056;17.056;2023-03-19T03:29:30;36.17;;;18.25;;
62687;SDS011;48752;51.056;17.056;2023-03-19T03:31:57;36.10;;;18.65;;
62687;SDS011;48752;51.056;17.056;2023-03-19T03:34:36;41.20;;;18.58;;
62687;SDS011;48752;51.056;17.056;2023-03-19T03:37:02;44.20;;;20.10;;
62687;SDS011;48752;51.056;17.056;2023-03-19T03:39:27;43.08;;;19.40;;
62687;SDS011;48752;51.056;17.056;2023-03-19T03:41:54;39.58;;;19.25;;
62687;SDS011;48752;51.056;17.056;2023-03-19T03:44:21;39.13;;;18.75;;
62687;SDS011;48752;51.056;17.056;2023-03-19T03:46:50;37.20;;;18.88;;
62687;SDS011;48752;51.056;17.056;2023-03-19T03:49:17;42.88;;;19.45;;
62687;SDS011;48752;51.056;17.056;2023-03-19T03:51:43;45.47;;;20.00;;
62687;SDS011;48752;51.056;17.056;2023-03-19T03:54:09;38.63;;;19.00;;
62687;SDS011;48752;51.056;17.056;2023-03-19T03:56:37;34.58;;;17.88;;
62687;SDS011;48752;51.056;17.056;2023-03-19T03:59:02;42.55;;;20.58;;
62687;SDS011;48752;51.056;17.056;2023-03-19T04:01:28;39.60;;;19.20;;
62687;SDS011;48752;51.056;17.056;2023-03-19T04:03:54;45.70;;;19.52;;
62687;SDS011;48752;51.056;17.056;2023-03-19T04:06:23;35.95;;;18.20;;
62687;SDS011;48752;51.056;17.056;2023-03-19T04:09:06;40.03;;;19.73;;
62687;SDS011;48752;51.056;17.056;2023-03-19T04:11:33;40.65;;;19.17;;
62687;SDS011;48752;51.056;17.056;2023-03-19T04:14:00;41.90;;;20.42;;
62687;SDS011;48752;51.056;17.056;2023-03-19T04:16:28;45.83;;;20.42;;
62687;SDS011;48752;51.056;17.056;2023-03-19T04:18:55;45.83;;;19.98;;
62687;SDS011;48752;51.056;17.056;2023-03-19T04:21:20;49.00;;;20.33;;
62687;SDS011;48752;51.056;17.056;2023-03-19T04:23:47;48.00;;;19.98;;
62687;SDS011;48752;51.056;17.056;2023-03-19T04:26:12;46.33;;;19.65;;
62687;SDS011;48752;51.056;17.056;2023-03-19T04:28:38;43.92;;;19.73;;
62687;SDS011;48752;51.056;17.056;2023-03-19T04:31:10;42.10;;;19.77;;
62687;SDS011;48752;51.056;17.056;2023-03-19T04:33:37;40.25;;;19.88;;
62687;SDS011;48752;51.056;17.056;2023-03-19T04:36:03;42.75;;;20.55;;
62687;SDS011;48752;51.056;17.056;2023-03-19T04:38:30;41.78;;;20.63;;
62687;SDS011;48752;51.056;17.056;2023-03-19T04:40:56;38.67;;;20.35;;
62687;SDS011;48752;51.056;17.056;2023-03-19T04:43:24;46.10;;;22.00;;
62687;SDS011;48752;51.056;17.056;2023-03-19T04:45:51;42.17;;;18.92;;
62687;SDS011;48752;51.056;17.056;2023-03-19T04:48:17;49.47;;;21.08;;
62687;SDS011;48752;51.056;17.056;2023-03-19T04:50:43;41.38;;;20.27;;
62687;SDS011;48752;51.056;17.056;2023-03-19T04:53:12;42.92;;;19.30;;
62687;SDS011;48752;51.056;17.056;2023-03-19T04:55:38;45.10;;;19.40;;
62687;SDS011;48752;51.056;17.056;2023-03-19T04:58:04;38.15;;;19.73;;
62687;SDS011;48752;51.056;17.056;2023-03-19T05:00:30;38.17;;;20.42;;
62687;SDS011;48752;51.056;17.056;2023-03-19T05:02:57;39.83;;;18.75;;
62687;SDS011;48752;51.056;17.056;2023-03-19T05:05:23;36.33;;;19.30;;
62687;SDS011;48752;51.056;17.056;2023-03-19T05:07:49;39.50;;;18.88;;
62687;SDS011;48752;51.056;17.056;2023-03-19T05:10:15;47.22;;;19.60;;
62687;SDS011;48752;51.056;17.056;2023-03-19T05:12:42;40.30;;;19.15;;
62687;SDS011;48752;51.056;17.056;2023-03-19T05:15:08;33.38;;;17.92;;
62687;SDS011;48752;51.056;17.056;2023-03-19T05:17:33;45.10;;;18.10;;
62687;SDS011;48752;51.056;17.056;2023-03-19T05:20:00;39.17;;;19.10;;
62687;SDS011;48752;51.056;17.056;2023-03-19T05:22:27;39.88;;;19.05;;
62687;SDS011;48752;51.056;17.056;2023-03-19T05:24:55;41.05;;;18.45;;
62687;SDS011;48752;51.056;17.056;2023-03-19T05:27:23;33.38;;;16.98;;
62687;SDS011;48752;51.056;17.056;2023-03-19T05:29:49;37.85;;;18.15;;
62687;SDS011;48752;51.056;17.056;2023-03-19T05:32:15;36.15;;;17.73;;
62687;SDS011;48752;51.056;17.056;2023-03-19T05:34:41;35.10;;;18.83;;
62687;SDS011;48752;51.056;17.056;2023-03-19T05:37:07;38.65;;;18.38;;
62687;SDS011;48752;51.056;17.056;2023-03-19T05:39:41;39.75;;;17.73;;
62687;SDS011;48752;51.056;17.056;2023-03-19T05:42:10;35.63;;;17.92;;
62687;SDS011;48752;51.056;17.056;2023-03-19T05:44:37;37.70;;;18.65;;
62687;SDS011;48752;51.056;17.056;2023-03-19T05:47:02;32.50;;;17.55;;
62687;SDS011;48752;51.056;17.056;2023-03-19T05:49:29;32.50;;;17.60;;
62687;SDS011;48752;51.056;17.056;2023-03-19T05:52:09;38.15;;;17.52;;
62687;SDS011;48752;51.056;17.056;2023-03-19T05:54:37;36.33;;;19.20;;
62687;SDS011;48752;51.056;17.056;2023-03-19T05:57:03;36.65;;;18.67;;
62687;SDS011;48752;51.056;17.056;2023-03-19T05:59:28;33.85;;;18.02;;
62687;SDS011;48752;51.056;17.056;2023-03-19T06:01:57;32.47;;;16.88;;
62687;SDS011;48752;51.056;17.056;2023-03-19T06:04:24;31.92;;;16.50;;
62687;SDS011;48752;51.056;17.056;2023-03-19T06:06:50;31.88;;;17.08;;
62687;SDS011;48752;51.056;17.056;2023-03-19T06:09:15;31.80;;;15.65;;
62687;SDS011;48752;51.056;17.056;2023-03-19T06:11:41;33.70;;;16.00;;
62687;SDS011;48752;51.056;17.056;2023-03-19T06:14:07;33.30;;;16.83;;
62687;SDS011;48752;51.056;17.056;2023-03-19T06:16:34;31.73;;;16.33;;
62687;SDS011;48752;51.056;17.056;2023-03-19T06:18:59;30.10;;;16.35;;
62687;SDS011;48752;51.056;17.056;2023-03-19T06:21:26;29.45;;;16.00;;
62687;SDS011;48752;51.056;17.056;2023-03-19T06:23:56;34.42;;;17.35;;
62687;SDS011;48752;51.056;17.056;2023-03-19T06:26:23;33.75;;;16.20;;
62687;SDS011;48752;51.056;17.056;2023-03-19T06:28:50;26.95;;;15.23;;
62687;SDS011;48752;51.056;17.056;2023-03-19T06:31:16;29.55;;;16.20;;
62687;SDS011;48752;51.056;17.056;2023-03-19T06:33:43;29.80;;;16.83;;
62687;SDS011;48752;51.056;17.056;2023-03-19T06:36:09;27.05;;;16.45;;
62687;SDS011;48752;51.056;17.056;2023-03-19T06:38:38;27.10;;;15.93;;
62687;SDS011;48752;51.056;17.056;2023-03-19T06:41:04;28.83;;;16.45;;
62687;SDS011;48752;51.056;17.056;2023-03-19T06:43:31;30.83;;;16.35;;
62687;SDS011;48752;51.056;17.056;2023-03-19T06:46:02;30.55;;;16.85;;
62687;SDS011;48752;51.056;17.056;2023-03-19T06:48:28;30.35;;;16.92;;
62687;SDS011;48752;51.056;17.056;2023-03-19T06:50:56;28.05;;;16.70;;
62687;SDS011;48752;51.056;17.056;2023-03-19T06:53:23;29.13;;;16.00;;
62687;SDS011;48752;51.056;17.056;2023-03-19T06:55:48;24.80;;;14.52;;
62687;SDS011;48752;51.056;17.056;2023-03-19T06:58:15;24.05;;;14.65;;
62687;SDS011;48752;51.056;17.056;2023-03-19T07:00:41;26.02;;;15.82;;
62687;SDS011;48752;51.056;17.056;2023-03-19T07:03:07;25.98;;;14.95;;
62687;SDS011;48752;51.056;17.056;2023-03-19T07:05:35;25.58;;;14.65;;
62687;SDS011;48752;51.056;17.056;2023-03-19T07:08:00;22.90;;;13.18;;
62687;SDS011;48752;51.056;17.056;2023-03-19T07:10:27;24.90;;;13.80;;
62687;SDS011;48752;51.056;17.056;2023-03-19T07:12:54;23.30;;;14.10;;
62687;SDS011;48752;51.056;17.056;2023-03-19T07:15:19;22.25;;;13.30;;
62687;SDS011;48752;51.056;17.056;2023-03-19T07:17:48;27.83;;;14.32;;
62687;SDS011;48752;51.056;17.056;2023-03-19T07:20:14;23.88;;;13.90;;
62687;SDS011;48752;51.056;17.056;2023-03-19T07:22:41;23.88;;;14.30;;
62687;SDS011;48752;51.056;17.056;2023-03-19T07:25:08;24.30;;;13.90;;
62687;SDS011;48752;51.056;17.056;2023-03-19T07:27:35;20.85;;;13.77;;
62687;SDS011;48752;51.056;17.056;2023-03-19T07:30:02;20.60;;;13.25;;
62687;SDS011;48752;51.056;17.056;2023-03-19T07:32:29;24.83;;;13.43;;
62687;SDS011;48752;51.056;17.056;2023-03-19T07:34:54;22.77;;;12.38;;
62687;SDS011;48752;51.056;17.056;2023-03-19T07:37:21;21.40;;;13.02;;
62687;SDS011;48752;51.056;17.056;2023-03-19T07:39:47;22.83;;;13.07;;
62687;SDS011;48752;51.056;17.056;2023-03-19T07:42:14;20.48;;;13.00;;
62687;SDS011;48752;51.056;17.056;2023-03-19T07:44:41;19.15;;;13.85;;
62687;SDS011;48752;51.056;17.056;2023-03-19T07:47:06;20.98;;;13.43;;
62687;SDS011;48752;51.056;17.056;2023-03-19T07:49:33;21.15;;;13.00;;
62687;SDS011;48752;51.056;17.056;2023-03-19T07:51:58;18.83;;;12.00;;
62687;SDS011;48752;51.056;17.056;2023-03-19T07:54:25;20.38;;;13.05;;
62687;SDS011;48752;51.056;17.056;2023-03-19T07:56:50;18.52;;;12.80;;
62687;SDS011;48752;51.056;17.056;2023-03-19T07:59:16;19.05;;;13.18;;
62687;SDS011;48752;51.056;17.056;2023-03-19T08:01:41;18.85;;;12.57;;
62687;SDS011;48752;51.056;17.056;2023-03-19T08:04:07;16.88;;;12.77;;
62687;SDS011;48752;51.056;17.056;2023-03-19T08:06:33;20.08;;;13.18;;
62687;SDS011;48752;51.056;17.056;2023-03-19T08:08:59;21.00;;;13.50;;
62687;SDS011;48752;51.056;17.056;2023-03-19T08:11:25;21.55;;;12.93;;
62687;SDS011;48752;51.056;17.056;2023-03-19T08:13:54;19.55;;;12.57;;
62687;SDS011;48752;51.056;17.056;2023-03-19T08:16:21;20.25;;;13.00;;
62687;SDS011;48752;51.056;17.056;2023-03-19T08:18:47;19.55;;;13.30;;
62687;SDS011;48752;51.056;17.056;2023-03-19T08:21:13;21.40;;;13.23;;
62687;SDS011;48752;51.056;17.056;2023-03-19T08:23:40;20.00;;;13.07;;
62687;SDS011;48752;51.056;17.056;2023-03-19T08:26:06;16.90;;;12.27;;
62687;SDS011;48752;51.056;17.056;2023-03-19T08:28:33;19.48;;;12.18;;
62687;SDS011;48752;51.056;17.056;2023-03-19T08:31:08;16.92;;;11.75;;
62687;SDS011;48752;51.056;17.056;2023-03-19T08:33:34;14.43;;;11.90;;
62687;SDS011;48752;51.056;17.056;2023-03-19T08:36:08;15.50;;;10.98;;
62687;SDS011;48752;51.056;17.056;2023-03-19T08:38:38;15.30;;;11.18;;
62687;SDS011;48752;51.056;17.056;2023-03-19T08:41:04;16.17;;;10.68;;
62687;SDS011;48752;51.056;17.056;2023-03-19T08:43:33;18.20;;;10.95;;
62687;SDS011;48752;51.056;17.056;2023-03-19T08:46:02;14.40;;;10.60;;
62687;SDS011;48752;51.056;17.056;2023-03-19T08:48:36;14.10;;;10.60;;
62687;SDS011;48752;51.056;17.056;2023-03-19T08:51:03;14.40;;;10.27;;
62687;SDS011;48752;51.056;17.056;2023-03-19T08:53:30;11.77;;;9.32;;
62687;SDS011;48752;51.056;17.056;2023-03-19T08:55:57;16.50;;;10.65;;
62687;SDS011;48752;51.056;17.056;2023-03-19T08:58:28;25.33;;;10.43;;
62687;SDS011;48752;51.056;17.056;2023-03-19T09:01:07;13.55;;;10.10;;
62687;SDS011;48752;51.056;17.056;2023-03-19T09:03:36;18.15;;;10.32;;
62687;SDS011;48752;51.056;17.056;2023-03-19T09:06:06;14.32;;;10.15;;
62687;SDS011;48752;51.056;17.056;2023-03-19T09:08:34;16.67;;;9.43;;
62687;SDS011;48752;51.056;17.056;2023-03-19T09:11:01;11.32;;;9.05;;
62687;SDS011;48752;51.056;17.056;2023-03-19T09:13:28;12.65;;;8.35;;
62687;SDS011;48752;51.056;17.056;2023-03-19T09:15:55;10.85;;;7.57;;
62687;SDS011;48752;51.056;17.056;2023-03-19T09:18:21;11.20;;;8.25;;
62687;SDS011;48752;51.056;17.056;2023-03-19T09:20:51;11.07;;;7.90;;
62687;SDS011;48752;51.056;17.056;2023-03-19T09:23:19;9.20;;;7.68;;
62687;SDS011;48752;51.056;17.056;2023-03-19T09:25:46;14.02;;;8.52;;
62687;SDS011;48752;51.056;17.056;2023-03-19T09:28:11;11.02;;;8.20;;
62687;SDS011;48752;51.056;17.056;2023-03-19T09:30:37;9.77;;;7.45;;
62687;SDS011;48752;51.056;17.056;2023-03-19T09:33:04;13.50;;;7.50;;
62687;SDS011;48752;51.056;17.056;2023-03-19T09:35:31;10.50;;;7.72;;
62687;SDS011;48752;51.056;17.056;2023-03-19T09:37:59;13.00;;;8.00;;
62687;SDS011;48752;51.056;17.056;2023-03-19T09:40:40;10.93;;;7.85;;
62687;SDS011;48752;51.056;17.056;2023-03-19T09:46:24;11.95;;;7.95;;
62687;SDS011;48752;51.056;17.056;2023-03-19T09:48:59;11.18;;;7.90;;
62687;SDS011;48752;51.056;17.056;2023-03-19T09:51:51;12.13;;;7.47;;
62687;SDS011;48752;51.056;17.056;2023-03-19T09:54:31;9.65;;;7.15;;
62687;SDS011;48752;51.056;17.056;2023-03-19T09:57:01;11.82;;;8.05;;
62687;SDS011;48752;51.056;17.056;2023-03-19T09:59:27;9.30;;;7.85;;
62687;SDS011;48752;51.056;17.056;2023-03-19T10:02:11;9.40;;;7.20;;
62687;SDS011;48752;51.056;17.056;2023-03-19T10:07:58;11.00;;;7.35;;
62687;SDS011;48752;51.056;17.056;2023-03-19T10:10:38;9.18;;;6.95;;
62687;SDS011;48752;51.056;17.056;2023-03-19T10:16:26;11.25;;;7.18;;
62687;SDS011;48752;51.056;17.056;2023-03-19T10:18:54;9.18;;;6.90;;
62687;SDS011;48752;51.056;17.056;2023-03-19T10:21:42;12.65;;;7.25;;
62687;SDS011;48752;51.056;17.056;2023-03-19T10:24:17;13.32;;;7.72;;
62687;SDS011;48752;51.056;17.056;2023-03-19T10:26:46;12.40;;;7.55;;
62687;SDS011;48752;51.056;17.056;2023-03-19T10:29:17;10.43;;;7.57;;
62687;SDS011;48752;51.056;17.056;2023-03-19T10:32:37;12.55;;;7.80;;
62687;SDS011;48752;51.056;17.056;2023-03-19T10:35:22;13.40;;;8.02;;
62687;SDS011;48752;51.056;17.056;2023-03-19T10:37:50;13.57;;;8.38;;
62687;SDS011;48752;51.056;17.056;2023-03-19T10:40:29;12.57;;;7.47;;
62687;SDS011;48752;51.056;17.056;2023-03-19T10:43:21;10.88;;;7.53;;
62687;SDS011;48752;51.056;17.056;2023-03-19T10:45:49;10.20;;;7.50;;
62687;SDS011;48752;51.056;17.056;2023-03-19T10:48:15;9.15;;;6.97;;
62687;SDS011;48752;51.056;17.056;2023-03-19T10:51:17;11.43;;;7.70;;
62687;SDS011;48752;51.056;17.056;2023-03-19T10:53:43;15.30;;;7.80;;
62687;SDS011;48752;51.056;17.056;2023-03-19T10:56:22;8.90;;;7.07;;
62687;SDS011;48752;51.056;17.056;2023-03-19T10:58:55;11.55;;;7.28;;
62687;SDS011;48752;51.056;17.056;2023-03-19T11:01:27;13.48;;;7.75;;
62687;SDS011;48752;51.056;17.056;2023-03-19T11:04:18;9.65;;;7.22;;
62687;SDS011;48752;51.056;17.056;2023-03-19T11:06:51;8.88;;;7.20;;
62687;SDS011;48752;51.056;17.056;2023-03-19T11:12:21;9.95;;;6.93;;
62687;SDS011;48752;51.056;17.056;2023-03-19T11:15:03;8.32;;;6.78;;
62687;SDS011;48752;51.056;17.056;2023-03-19T11:17:49;12.82;;;7.75;;
62687;SDS011;48752;51.056;17.056;2023-03-19T11:20:32;12.48;;;7.32;;
62687;SDS011;48752;51.056;17.056;2023-03-19T11:23:14;12.75;;;7.00;;
62687;SDS011;48752;51.056;17.056;2023-03-19T11:25:51;13.45;;;8.25;;
62687;SDS011;48752;51.056;17.056;2023-03-19T11:28:20;12.88;;;8.80;;
62687;SDS011;48752;51.056;17.056;2023-03-19T11:31:10;12.57;;;9.20;;
62687;SDS011;48752;51.056;17.056;2023-03-19T11:34:07;20.13;;;9.63;;
62687;SDS011;48752;51.056;17.056;2023-03-19T11:47:53;13.80;;;9.10;;
62687;SDS011;48752;51.056;17.056;2023-03-19T11:50:26;13.07;;;8.88;;
62687;SDS011;48752;51.056;17.056;2023-03-19T11:55:55;23.75;;;9.45;;
62687;SDS011;48752;51.056;17.056;2023-03-19T12:01:37;13.90;;;9.18;;
62687;SDS011;48752;51.056;17.056;2023-03-19T12:04:22;11.77;;;8.73;;
62687;SDS011;48752;51.056;17.056;2023-03-19T12:09:51;14.55;;;10.02;;
62687;SDS011;48752;51.056;17.056;2023-03-19T12:23:26;13.38;;;9.10;;
62687;SDS011;48752;51.056;17.056;2023-03-19T12:26:04;13.48;;;9.70;;
62687;SDS011;48752;51.056;17.056;2023-03-19T12:28:40;12.80;;;8.25;;
62687;SDS011;48752;51.056;17.056;2023-03-19T12:40:04;13.85;;;9.05;;
62687;SDS011;48752;51.056;17.056;2023-03-19T12:42:48;12.70;;;8.57;;
62687;SDS011;48752;51.056;17.056;2023-03-19T12:50:38;13.40;;;8.20;;
62687;SDS011;48752;51.056;17.056;2023-03-19T12:53:07;11.50;;;7.93;;
62687;SDS011;48752;51.056;17.056;2023-03-19T12:55:41;13.38;;;8.38;;
62687;SDS011;48752;51.056;17.056;2023-03-19T12:58:17;13.10;;;8.70;;
62687;SDS011;48752;51.056;17.056;2023-03-19T13:06:00;14.20;;;9.10;;
62687;SDS011;48752;51.056;17.056;2023-03-19T13:08:51;13.80;;;8.30;;
62687;SDS011;48752;51.056;17.056;2023-03-19T13:14:19;12.27;;;8.50;;
62687;SDS011;48752;51.056;17.056;2023-03-19T13:17:25;14.52;;;8.10;;
62687;SDS011;48752;51.056;17.056;2023-03-19T13:19:54;13.85;;;8.25;;
62687;SDS011;48752;51.056;17.056;2023-03-19T13:22:26;12.93;;;8.07;;
62687;SDS011;48752;51.056;17.056;2023-03-19T13:25:12;11.57;;;7.32;;
62687;SDS011;48752;51.056;17.056;2023-03-19T13:27:51;15.35;;;9.23;;
62687;SDS011;48752;51.056;17.056;2023-03-19T13:30:21;13.32;;;8.98;;
62687;SDS011;48752;51.056;17.056;2023-03-19T13:33:03;10.85;;;6.95;;
62687;SDS011;48752;51.056;17.056;2023-03-19T13:35:38;11.27;;;6.88;;
62687;SDS011;48752;51.056;17.056;2023-03-19T13:38:19;11.82;;;7.90;;
62687;SDS011;48752;51.056;17.056;2023-03-19T13:41:05;13.82;;;8.73;;
62687;SDS011;48752;51.056;17.056;2023-03-19T13:43:59;12.57;;;8.45;;
62687;SDS011;48752;51.056;17.056;2023-03-19T13:46:59;11.82;;;8.15;;
62687;SDS011;48752;51.056;17.056;2023-03-19T13:49:32;12.07;;;8.68;;
62687;SDS011;48752;51.056;17.056;2023-03-19T13:54:50;11.93;;;8.02;;
62687;SDS011;48752;51.056;17.056;2023-03-19T13:57:18;12.50;;;8.00;;
62687;SDS011;48752;51.056;17.056;2023-03-19T13:59:48;15.25;;;8.30;;
62687;SDS011;48752;51.056;17.056;2023-03-19T14:02:50;9.85;;;6.70;;
62687;SDS011;48752;51.056;17.056;2023-03-19T14:05:39;11.70;;;6.45;;
62687;SDS011;48752;51.056;17.056;2023-03-19T14:08:13;8.30;;;6.07;;
62687;SDS011;48752;51.056;17.056;2023-03-19T14:10:44;9.93;;;5.90;;
62687;SDS011;48752;51.056;17.056;2023-03-19T14:13:33;10.82;;;5.65;;
62687;SDS011;48752;51.056;17.056;2023-03-19T14:16:18;7.93;;;5.28;;
62687;SDS011;48752;51.056;17.056;2023-03-19T14:18:47;10.00;;;5.88;;
62687;SDS011;48752;51.056;17.056;2023-03-19T14:21:15;9.02;;;6.32;;
62687;SDS011;48752;51.056;17.056;2023-03-19T14:23:52;7.93;;;5.50;;
62687;SDS011;48752;51.056;17.056;2023-03-19T14:26:23;8.15;;;6.13;;
62687;SDS011;48752;51.056;17.056;2023-03-19T14:29:01;10.00;;;5.90;;
62687;SDS011;48752;51.056;17.056;2023-03-19T14:31:44;9.27;;;6.10;;
62687;SDS011;48752;51.056;17.056;2023-03-19T14:34:21;15.02;;;6.00;;
62687;SDS011;48752;51.056;17.056;2023-03-19T14:37:01;8.38;;;5.93;;
62687;SDS011;48752;51.056;17.056;2023-03-19T14:39:48;9.60;;;6.20;;
62687;SDS011;48752;51.056;17.056;2023-03-19T14:50:26;8.95;;;5.47;;
62687;SDS011;48752;51.056;17.056;2023-03-19T14:56:19;9.70;;;5.93;;
62687;SDS011;48752;51.056;17.056;2023-03-19T14:58:57;10.07;;;5.82;;
62687;SDS011;48752;51.056;17.056;2023-03-19T15:01:28;12.13;;;6.18;;
62687;SDS011;48752;51.056;17.056;2023-03-19T15:04:15;10.93;;;7.78;;
62687;SDS011;48752;51.056;17.056;2023-03-19T15:06:42;15.35;;;9.20;;
62687;SDS011;48752;51.056;17.056;2023-03-19T15:09:30;13.30;;;10.05;;
62687;SDS011;48752;51.056;17.056;2023-03-19T15:17:36;18.73;;;9.32;;
62687;SDS011;48752;51.056;17.056;2023-03-19T15:20:08;14.07;;;9.43;;
62687;SDS011;48752;51.056;17.056;2023-03-19T15:22:41;13.25;;;9.07;;
62687;SDS011;48752;51.056;17.056;2023-03-19T15:25:09;12.90;;;9.20;;
62687;SDS011;48752;51.056;17.056;2023-03-19T15:27:38;14.63;;;9.50;;
62687;SDS011;48752;51.056;17.056;2023-03-19T15:30:21;13.68;;;9.20;;
62687;SDS011;48752;51.056;17.056;2023-03-19T15:32:53;14.93;;;9.40;;
62687;SDS011;48752;51.056;17.056;2023-03-19T15:35:21;15.55;;;9.25;;
62687;SDS011;48752;51.056;17.056;2023-03-19T15:37:52;14.32;;;8.98;;
62687;SDS011;48752;51.056;17.056;2023-03-19T15:40:20;12.88;;;8.80;;
62687;SDS011;48752;51.056;17.056;2023-03-19T15:42:48;13.80;;;9.02;;
62687;SDS011;48752;51.056;17.056;2023-03-19T15:45:20;19.95;;;9.95;;
62687;SDS011;48752;51.056;17.056;2023-03-19T15:47:50;15.65;;;9.45;;
62687;SDS011;48752;51.056;17.056;2023-03-19T15:50:30;14.52;;;10.15;;
62687;SDS011;48752;51.056;17.056;2023-03-19T15:53:03;13.80;;;9.35;;
62687;SDS011;48752;51.056;17.056;2023-03-19T15:55:31;14.20;;;9.80;;
62687;SDS011;48752;51.056;17.056;2023-03-19T15:58:02;17.10;;;11.13;;
62687;SDS011;48752;51.056;17.056;2023-03-19T16:00:36;13.88;;;9.15;;
62687;SDS011;48752;51.056;17.056;2023-03-19T16:03:25;14.38;;;10.25;;
62687;SDS011;48752;51.056;17.056;2023-03-19T16:06:04;20.85;;;9.98;;
62687;SDS011;48752;51.056;17.056;2023-03-19T16:08:36;18.75;;;10.02;;